AirNav   Pilot Hours Calculator
 
 1643 users online  

RI11 Riconn Airport
Greene, Rhode Island, USA

GOING TO GREENE?


FAA INFORMATION EFFECTIVE 26 JANUARY 2023

Location

FAA Identifier: RI11
Lat/Long: 41-41-48.3570N 071-47-01.2510W
41-41.805950N 071-47.020850W
41.6967658,-71.7836808
(estimated)
Elevation: 385 ft. / 117 m (estimated)
Variation: 15W (1985)
From city: 2 miles W of GREENE, RI
Time zone: UTC -5 (UTC -4 during Daylight Saving Time)
Zip code: 02827

Airport Operations

Airport use: Private use. Permission required prior to landing
Activation date: 08/1942
Control tower: no
ARTCC: BOSTON CENTER
FSS: BRIDGEPORT FLIGHT SERVICE STATION
Attendance: IREG
Wind indicator: yes
Segmented circle: no

Airport Communications

WX AWOS-3 at LZD (9 nm NW): 119.125 (860-779-7251)
WX ASOS at PVD (16 nm E): 124.2 (401-734-2818)
WX ASOS at OQU (18 nm E): 118.6
WX ASOS at IJD (18 nm W): 133.675 (860-456-8839)
WX AWOS-3PT at SFZ (19 nm NE): 120.775 (401-334-0324)

Nearby radio navigation aids

VOR radial/distance  VOR name  Freq  Var
ORWr063/12.8NORWICH VOR/DME110.0014W
PUTr184/15.8PUTNAM VOR/DME117.4014W
PVDr278/15.9PROVIDENCE VOR/DME115.6014W
GONr043/25.1GROTON VOR/DME110.8514W
SEYr359/33.1SANDY POINT VOR/DME117.8015W
HFDr097/34.4HARTFORD VOR/DME114.9013W

Airport Services

Airframe service: NONE
Powerplant service: NONE

Runway Information

Runway 9/27

Dimensions: 1600 x 100 ft. / 488 x 30 m
Surface: turf
RUNWAY 9  RUNWAY 27
Traffic pattern: leftleft

Runway 14/32

Dimensions: 1576 x 100 ft. / 480 x 30 m
Surface: turf
RUNWAY 14  RUNWAY 32
Traffic pattern: leftleft
Obstructions: treesnone

Airport Ownership and Management from official FAA records

Ownership: Privately-owned
Owner: EDWARD BATTEY ET ALS.
2357 PLAINFIELD PIKE
GREENE, RI 02827
Phone 401-397-3850
FRACTIONAL OWNERSHIP - NO DESIGNATED MANAGER

Airport Operational Statistics

Aircraft based on the field: 16
Single engine airplanes: 16
    

Additional Remarks

FOR CD CTC PROVIDENCE APCH AT 401-738-8945, WHEN APCH CLSD CTC BOSTON ARTCC AT 603-879-6859.
RWY 14/32 FOR EUO.
DEER AND BIRDS ON AND INVOF ARPT.
RWY CONDS ARE NOT MNT OR REPORTED WHEN AIRFIELD IS UNATNDD.

Instrument Procedures

There are no published instrument procedures at RI11.

Some nearby airports with instrument procedures:

KLZD - Danielson Airport (9 nm NW)
KPVD - Rhode Island TF Green International Airport (16 nm E)
KOQU - Quonset State Airport (18 nm E)
KIJD - Windham Airport (18 nm W)
KSFZ - North Central State Airport (19 nm NE)
 
Loc | Ops | Rwys | IFR | FBO | Links
Com | Nav | Svcs | Stats | Notes
Area around RI11 (Riconn Airport)
 
Road maps at: MapQuest Bing Google
 
Aerial photo
WARNING: Photo may not be current or correct
Aerial photo of RI11 (Riconn Airport)
Photo by Mick Wingert
Taken in 2016
looking northeast

Do you have a better or more recent aerial photo of Riconn Airport that you would like to share? If so, please send us your photo.

 
Sectional chart

 
Airport distance calculator
Flying to Riconn Airport? Find the distance to fly.

From to RI11

Sunrise and sunset
Times for 08-Feb-2023
 Local
(UTC-5)
 Zulu
(UTC)
Morning civil twilight06:2411:24
Sunrise06:5311:53
Sunset17:1022:10
Evening civil twilight17:3922:39

Current date and time
Zulu (UTC)  08-Feb-2023 17:56:55
Local (UTC-5)  08-Feb-2023 12:56:55
 
METAR
KPVD 
16nm E 
081651Z 32012G20KT 10SM BKN041 07/M02 A3013 RMK AO2 SLP203 T00721017
KOQU 
17nm E 
081650Z 36015KT 10SM BKN041 08/M02 A3014
KIJD 
18nm W 
081652Z AUTO 32013G23KT 280V350 10SM FEW047 07/M04 A3016 RMK AO2 PK WND 34026/1602 SLP212 T00671039
KSFZ 
18nm NE 
081656Z AUTO 31014G24KT 10SM OVC041 06/M02 A3012 RMK AO2 SLP203 T00561022
KWST 
21nm S 
081653Z AUTO 30010G19KT 250V350 10SM SCT039 08/M02 A3014 RMK AO2 PK WND 32028/1555 SLP207 T00831017
KUUU 
24nm SE 
081653Z AUTO 32013KT 10SM OVC039 07/M01 A3012 RMK AO2 SLP199 T00671011
KGON 
25nm SW 
081656Z 31015G27KT 10SM FEW041 10/M02 A3014 RMK AO2 PK WND 31028/1632 SLP207 T01001022
TAF
KPVD 
16nm E 
081126Z 0812/0912 27008KT P6SM FEW050 FM081500 30010G20KT P6SM SCT200 FM082300 28006KT P6SM SKC FM090300 25003KT P6SM FEW250 FM090700 00000KT P6SM SCT250
NOTAMs
Click for the latest NOTAMs
NOTAMs are issued by the DoD/FAA and will open in a separate window not controlled by AirNav.

 

 
 

Would you like to see your business listed on this page?

 If your business provides an interesting product or service to pilots, flight crews, aircraft, or users of the Riconn Airport, you should consider listing it here.  To start the listing process, click on the button below
 
Add a business
 

Other Pages about Riconn Airport

Update a link
 
Copyright © AirNav, LLC. All rights reserved. Privacy Policy  Contact